Time;durP1;ratioP1;P1;durP2;ratioP2;P2;SDS_P1;SDS_P2;PMS_P1;PMS_P2;Temp;Humidity;BMP_temperature;BMP_pressure;BME280_temperature;BME280_humidity;BME280_pressure;Samples;Min_cycle;Max_cycle;Signal;HPM_P1;HPM_P2
2024/03/03 00:02:23;;;;;;;43.65;25.05;;;;;;;7.42;77.11;96970.94;4952235;28;106295;-67
2024/03/03 00:04:51;;;;;;;43.72;23.08;;;;;;;7.46;76.53;96966.91;4973813;28;103110;-70
2024/03/03 00:07:20;;;;;;;46.05;25.73;;;;;;;7.50;76.74;96971.81;4961336;28;103522;-70
2024/03/03 00:09:48;;;;;;;41.05;24.05;;;;;;;7.55;76.67;96964.16;4972567;28;103286;-71
2024/03/03 00:12:18;;;;;;;43.25;24.52;;;;;;;7.42;76.76;96955.13;4978694;28;102719;-66
2024/03/03 00:14:46;;;;;;;40.95;24.65;;;;;;;7.23;77.64;96950.50;4952725;28;104863;-67
2024/03/03 00:17:14;;;;;;;47.13;25.27;;;;;;;7.14;77.87;96947.22;4969697;28;102728;-67
2024/03/03 00:19:42;;;;;;;46.55;26.40;;;;;;;7.20;77.98;96948.28;4974063;28;102868;-66
2024/03/03 00:22:10;;;;;;;43.20;25.63;;;;;;;7.10;78.54;96941.50;4949084;28;106153;-67
2024/03/03 00:24:38;;;;;;;42.75;25.33;;;;;;;7.14;77.86;96934.06;4968101;28;103246;-67
2024/03/03 00:27:08;;;;;;;43.45;23.33;;;;;;;7.07;78.38;96931.34;4951729;28;102817;-66
2024/03/03 00:29:37;;;;;;;43.60;25.92;;;;;;;7.03;78.40;96924.84;4959614;28;102986;-65
2024/03/03 00:32:06;;;;;;;45.03;25.90;;;;;;;7.04;78.74;96913.31;4973742;28;103177;-65
2024/03/03 00:34:35;;;;;;;42.70;26.10;;;;;;;6.99;78.62;96910.41;4955240;28;111444;-66
2024/03/03 00:37:03;;;;;;;45.85;27.15;;;;;;;7.04;78.62;96910.66;4944066;28;103611;-65
2024/03/03 00:39:31;;;;;;;47.53;26.00;;;;;;;6.91;78.67;96907.94;4945413;28;103210;-66
2024/03/03 00:42:00;;;;;;;42.25;24.92;;;;;;;6.87;78.65;96904.84;4962383;28;103145;-66
2024/03/03 00:44:28;;;;;;;43.28;24.85;;;;;;;6.88;79.05;96910.94;4951455;28;106051;-65
2024/03/03 00:46:58;;;;;;;50.92;25.58;;;;;;;7.04;78.20;96910.66;4951671;28;104407;-66
2024/03/03 00:49:26;;;;;;;45.55;26.15;;;;;;;6.99;78.37;96912.25;4947786;28;103025;-65
2024/03/03 00:51:55;;;;;;;43.20;25.08;;;;;;;7.01;78.62;96916.31;4953409;28;106174;-65
2024/03/03 00:54:23;;;;;;;42.17;25.30;;;;;;;7.04;78.04;96913.31;4970854;28;103368;-65
2024/03/03 00:56:51;;;;;;;45.88;26.35;;;;;;;6.93;78.84;96916.44;4950436;28;103977;-65
2024/03/03 00:59:21;;;;;;;37.50;21.80;;;;;;;7.09;78.22;96913.56;4954162;28;103776;-65
2024/03/03 01:01:49;;;;;;;47.60;24.73;;;;;;;7.14;77.69;96911.16;4966151;28;106147;-66
2024/03/03 01:04:18;;;;;;;40.55;24.50;;;;;;;7.11;77.81;96911.56;4949987;28;106746;-65
2024/03/03 01:06:45;;;;;;;43.05;24.85;;;;;;;7.02;78.41;96907.44;4950503;28;102743;-66
2024/03/03 01:09:13;;;;;;;43.00;25.33;;;;;;;6.82;79.46;96901.16;4954381;28;103225;-67
2024/03/03 01:11:42;;;;;;;47.83;27.02;;;;;;;6.86;79.07;96897.97;4954657;28;105461;-66
2024/03/03 01:14:10;;;;;;;48.85;25.80;;;;;;;6.61;79.24;96895.69;4953668;28;105371;-65
2024/03/03 01:16:37;;;;;;;45.63;26.05;;;;;;;6.56;79.68;96892.00;4971546;28;102935;-66
2024/03/03 01:19:07;;;;;;;46.10;25.50;;;;;;;6.80;79.61;96894.28;4952181;28;102834;-65
2024/03/03 01:21:39;;;;;;;41.60;24.17;;;;;;;7.00;78.05;96892.84;4955098;28;111614;-65
2024/03/03 01:24:08;;;;;;;34.03;19.60;;;;;;;7.20;77.36;96892.97;4976120;28;103217;-65
2024/03/03 01:26:37;;;;;;;40.25;24.58;;;;;;;7.14;77.40;96884.84;4969237;28;104524;-66
2024/03/03 01:29:05;;;;;;;45.47;23.05;;;;;;;7.20;77.50;96877.19;4949896;28;103783;-66
2024/03/03 01:31:33;;;;;;;45.88;25.10;;;;;;;6.78;78.24;96872.59;4970275;28;106443;-66
2024/03/03 01:34:01;;;;;;;46.53;24.77;;;;;;;6.56;79.02;96865.69;4971390;28;103661;-66
2024/03/03 01:36:29;;;;;;;42.33;24.23;;;;;;;6.57;78.81;96860.25;4948288;28;102702;-67
2024/03/03 01:38:59;;;;;;;43.83;25.35;;;;;;;6.53;79.42;96869.53;4954804;28;103192;-67
2024/03/03 01:41:30;;;;;;;43.08;25.65;;;;;;;6.36;79.82;96855.00;4956268;28;104644;-66
2024/03/03 01:43:58;;;;;;;40.60;23.48;;;;;;;6.43;80.04;96855.84;4971258;28;103395;-65
2024/03/03 01:46:27;;;;;;;44.38;24.67;;;;;;;6.35;79.87;96859.41;4971488;28;102828;-66
2024/03/03 01:48:55;;;;;;;50.05;26.40;;;;;;;6.34;79.94;96867.50;4973573;28;102669;-70
2024/03/03 01:51:26;;;;;;;43.85;24.45;;;;;;;6.41;79.70;96863.94;4955168;28;105554;-69
2024/03/03 01:53:54;;;;;;;41.90;24.80;;;;;;;6.38;79.34;96861.69;4951236;28;106317;-69
2024/03/03 01:56:28;;;;;;;47.58;24.67;;;;;;;6.25;80.13;96865.00;4973620;28;102898;-66
2024/03/03 01:58:57;;;;;;;42.10;25.00;;;;;;;6.27;80.37;96860.34;4953334;28;102735;-66
2024/03/03 02:01:28;;;;;;;37.85;23.35;;;;;;;6.50;79.48;96850.66;4952972;28;106279;-66
2024/03/03 02:03:58;;;;;;;40.72;24.15;;;;;;;6.51;79.00;96852.28;4949857;28;105348;-66
2024/03/03 02:06:32;;;;;;;38.90;23.45;;;;;;;6.61;79.11;96845.72;4949695;28;104260;-66
2024/03/03 02:09:00;;;;;;;44.47;25.85;;;;;;;6.60;79.19;96840.66;4951588;28;103827;-66
2024/03/03 02:11:30;;;;;;;48.63;27.00;;;;;;;6.40;79.82;96841.28;4950334;28;106103;-66
2024/03/03 02:13:58;;;;;;;40.83;24.17;;;;;;;6.04;80.52;96847.38;4950632;28;105282;-65
2024/03/03 02:16:27;;;;;;;45.80;25.80;;;;;;;6.13;80.64;96843.63;4953943;28;104216;-65
2024/03/03 02:18:56;;;;;;;41.30;24.40;;;;;;;6.24;79.77;96847.59;4946785;28;102706;-65
2024/03/03 02:21:25;;;;;;;40.55;23.58;;;;;;;6.37;79.50;96844.28;4946236;28;105659;-65
2024/03/03 02:23:53;;;;;;;41.10;25.33;;;;;;;6.09;79.19;96844.19;4949118;28;105650;-66
2024/03/03 02:26:23;;;;;;;43.05;24.88;;;;;;;5.87;81.09;96845.91;4950486;28;102852;-66
2024/03/03 02:28:52;;;;;;;46.47;26.40;;;;;;;5.91;80.21;96848.00;4974969;28;102667;-66
2024/03/03 02:31:20;;;;;;;37.17;21.38;;;;;;;6.10;80.19;96846.63;4948585;28;105366;-69
2024/03/03 02:33:51;;;;;;;38.10;19.75;;;;;;;6.29;79.11;96854.94;4958084;28;105235;-69
2024/03/03 02:36:19;;;;;;;35.55;20.30;;;;;;;6.29;78.42;96860.19;4978729;28;104476;-69
2024/03/03 02:38:50;;;;;;;41.47;24.25;;;;;;;6.08;78.47;96853.88;4974588;28;103165;-69
2024/03/03 02:41:18;;;;;;;42.88;24.83;;;;;;;5.92;78.67;96849.63;4952171;28;105732;-70
2024/03/03 02:43:46;;;;;;;46.83;25.05;;;;;;;5.69;80.02;96847.13;4954482;28;103642;-70
2024/03/03 02:46:14;;;;;;;46.50;27.05;;;;;;;5.55;81.51;96843.50;4952258;28;104425;-69
2024/03/03 02:48:42;;;;;;;48.47;25.58;;;;;;;5.56;81.70;96846.94;4960618;28;102819;-70
2024/03/03 02:51:11;;;;;;;45.50;25.23;;;;;;;5.73;81.69;96840.50;4971848;28;103911;-70
2024/03/03 02:53:39;;;;;;;47.13;25.30;;;;;;;5.89;80.79;96841.28;4955431;28;107582;-69
2024/03/03 02:56:09;;;;;;;44.95;25.48;;;;;;;5.92;80.04;96838.28;4973320;28;102700;-71
2024/03/03 02:58:37;;;;;;;36.55;21.52;;;;;;;6.05;79.44;96846.38;4958364;28;102746;-69
2024/03/03 03:01:05;;;;;;;39.60;22.25;;;;;;;6.14;78.19;96847.06;4949811;28;104315;-70
2024/03/03 03:03:33;;;;;;;32.17;19.92;;;;;;;6.18;78.07;96847.53;4967585;28;103780;-69
2024/03/03 03:06:01;;;;;;;37.50;21.40;;;;;;;6.13;78.02;96851.53;4973309;28;102763;-69
2024/03/03 03:08:29;;;;;;;35.83;21.33;;;;;;;6.19;77.37;96846.53;4972242;28;103069;-69
2024/03/03 03:10:57;;;;;;;34.55;18.55;;;;;;;6.13;77.69;96850.69;4957906;28;103788;-69
2024/03/03 03:13:26;;;;;;;31.83;17.77;;;;;;;6.12;77.49;96854.34;4955966;28;105295;-70
2024/03/03 03:15:56;;;;;;;38.90;21.83;;;;;;;6.06;76.59;96850.63;4953586;28;103828;-69
2024/03/03 03:18:25;;;;;;;43.75;22.67;;;;;;;6.01;77.43;96855.59;4951490;28;103300;-69
2024/03/03 03:20:53;;;;;;;37.00;22.20;;;;;;;5.96;77.61;96848.25;4955099;28;105295;-69
2024/03/03 03:23:22;;;;;;;43.65;23.15;;;;;;;5.85;78.05;96855.81;4971241;28;103722;-69
2024/03/03 03:25:50;;;;;;;40.97;23.15;;;;;;;5.69;78.17;96859.44;4979146;28;103612;-69
2024/03/03 03:28:18;;;;;;;37.92;21.67;;;;;;;5.74;79.39;96857.91;4954956;28;103252;-69
2024/03/03 03:30:50;;;;;;;36.13;19.38;;;;;;;5.91;78.04;96862.97;4975117;28;104336;-69
2024/03/03 03:33:18;;;;;;;45.22;23.13;;;;;;;5.77;77.43;96870.66;4974578;28;103263;-69
2024/03/03 03:35:46;;;;;;;31.80;19.23;;;;;;;5.84;77.16;96872.56;4978425;28;102698;-70
2024/03/03 03:38:14;;;;;;;34.13;19.45;;;;;;;5.82;77.07;96878.81;4973655;28;103031;-69
2024/03/03 03:40:42;;;;;;;40.83;23.88;;;;;;;4.98;80.33;96871.16;4966521;28;103379;-69
2024/03/03 03:43:10;;;;;;;46.97;26.77;;;;;;;4.78;81.64;96869.03;4980929;28;103790;-69
2024/03/03 03:45:39;;;;;;;40.70;22.30;;;;;;;5.12;81.84;96859.88;4970322;28;102657;-67
2024/03/03 03:48:09;;;;;;;39.45;23.58;;;;;;;5.11;80.89;96857.44;4974001;28;102716;-67
2024/03/03 03:50:37;;;;;;;36.42;22.13;;;;;;;5.11;80.71;96857.44;4968877;28;108205;-66
2024/03/03 03:53:05;;;;;;;41.17;24.20;;;;;;;5.26;80.36;96865.31;4974230;28;103128;-67
2024/03/03 03:55:33;;;;;;;42.38;24.02;;;;;;;5.31;80.14;96865.59;4974419;28;102679;-67
2024/03/03 03:58:02;;;;;;;34.15;19.90;;;;;;;5.45;79.17;96859.53;4959088;28;102754;-69
2024/03/03 04:00:30;;;;;;;41.17;23.48;;;;;;;5.32;78.09;96849.66;4951534;28;106136;-69
2024/03/03 04:02:58;;;;;;;41.30;23.67;;;;;;;4.90;80.06;96852.84;4978498;28;103187;-69
2024/03/03 04:05:28;;;;;;;37.60;19.42;;;;;;;4.94;80.48;96851.53;4978071;28;102754;-69
2024/03/03 04:07:56;;;;;;;32.47;17.83;;;;;;;5.19;80.15;96859.13;4970032;28;103417;-69
2024/03/03 04:10:24;;;;;;;31.65;19.05;;;;;;;5.30;79.48;96858.72;4974548;28;103491;-70
2024/03/03 04:12:53;;;;;;;39.17;22.83;;;;;;;5.10;78.41;96851.34;4974748;28;103145;-69
2024/03/03 04:15:22;;;;;;;36.90;20.50;;;;;;;5.10;79.54;96851.34;4973210;28;102788;-69
2024/03/03 04:17:50;;;;;;;30.63;17.27;;;;;;;5.22;78.51;96856.97;4959106;28;104003;-69
2024/03/03 04:20:18;;;;;;;34.75;21.20;;;;;;;5.14;78.58;96852.63;4971002;28;103297;-70
2024/03/03 04:22:48;;;;;;;38.10;21.17;;;;;;;5.15;78.57;96862.13;4976953;28;103207;-69
2024/03/03 04:25:18;;;;;;;44.58;24.90;;;;;;;4.78;79.70;96862.94;4957308;28;103036;-69
2024/03/03 04:27:46;;;;;;;41.78;23.60;;;;;;;4.75;79.96;96856.25;4975466;28;103070;-69
2024/03/03 04:30:14;;;;;;;45.92;25.08;;;;;;;4.51;81.18;96851.19;4951394;28;103839;-69
2024/03/03 04:32:42;;;;;;;45.72;25.60;;;;;;;4.22;83.02;96847.44;4971067;28;103275;-70
2024/03/03 04:35:10;;;;;;;45.55;25.98;;;;;;;4.17;83.83;96853.22;4949935;28;102642;-69
2024/03/03 04:37:39;;;;;;;49.88;26.17;;;;;;;4.19;84.60;96858.28;4954177;28;103082;-70
2024/03/03 04:40:09;;;;;;;49.45;27.05;;;;;;;4.21;83.96;96851.06;4970249;28;103827;-70
2024/03/03 04:42:40;;;;;;;40.40;23.98;;;;;;;4.21;83.83;96858.94;4967341;28;107625;-70
2024/03/03 04:45:09;;;;;;;41.97;22.92;;;;;;;4.33;84.09;96849.66;4958160;28;102790;-70
2024/03/03 04:47:38;;;;;;;47.70;27.33;;;;;;;4.34;82.87;96845.22;4945001;28;102776;-70
2024/03/03 04:50:08;;;;;;;43.35;24.10;;;;;;;4.25;83.04;96849.72;4960969;28;103261;-70
2024/03/03 04:52:39;;;;;;;43.85;24.17;;;;;;;4.11;84.00;96840.78;4945395;28;110962;-70
2024/03/03 04:55:09;;;;;;;41.88;23.10;;;;;;;4.32;83.93;96846.25;4941667;28;104451;-70
2024/03/03 04:57:38;;;;;;;35.88;20.13;;;;;;;4.57;82.88;96850.50;4961934;28;102762;-70
2024/03/03 05:00:09;;;;;;;37.33;20.52;;;;;;;4.68;82.15;96857.94;4964255;28;103427;-70
2024/03/03 05:02:37;;;;;;;39.15;21.63;;;;;;;4.63;80.92;96860.28;4963311;28;109265;-70
2024/03/03 05:05:05;;;;;;;43.60;22.88;;;;;;;4.26;80.06;96854.00;4963403;28;102713;-70
2024/03/03 05:07:34;;;;;;;40.47;22.38;;;;;;;4.12;81.71;96858.97;4962345;28;103195;-70
2024/03/03 05:10:02;;;;;;;36.38;21.10;;;;;;;4.41;82.05;96852.22;4945883;28;103424;-70
2024/03/03 05:12:31;;;;;;;35.15;19.00;;;;;;;4.54;80.59;96861.34;4958116;28;103328;-70
2024/03/03 05:14:59;;;;;;;31.25;18.42;;;;;;;4.60;80.35;96860.66;4943432;28;105947;-70
2024/03/03 05:17:27;;;;;;;40.90;22.45;;;;;;;4.58;79.28;96857.38;4961324;28;102804;-70
2024/03/03 05:19:56;;;;;;;34.38;17.77;;;;;;;4.58;79.34;96858.19;4953153;28;103209;-69
2024/03/03 05:22:26;;;;;;;33.17;18.58;;;;;;;4.62;79.56;96859.47;4961403;28;103303;-70
2024/03/03 05:24:54;;;;;;;27.90;16.75;;;;;;;4.70;79.27;96866.44;4947142;28;102871;-70
2024/03/03 05:27:22;;;;;;;34.15;18.60;;;;;;;4.80;79.06;96863.59;4943290;28;103412;-70
2024/03/03 05:29:52;;;;;;;35.25;19.98;;;;;;;4.85;79.13;96871.75;4963500;28;103253;-70
2024/03/03 05:32:20;;;;;;;40.78;22.40;;;;;;;4.61;77.99;96878.81;4942769;28;105327;-67
2024/03/03 05:34:48;;;;;;;37.28;21.08;;;;;;;4.64;79.06;96875.03;4961271;28;103079;-67
2024/03/03 05:37:16;;;;;;;44.03;24.13;;;;;;;3.95;81.98;96873.16;4955266;28;102942;-67
2024/03/03 05:39:44;;;;;;;40.78;23.08;;;;;;;3.98;82.22;96878.03;4943784;28;105667;-67
2024/03/03 05:42:12;;;;;;;44.30;24.45;;;;;;;3.98;82.83;96873.63;4953728;28;103335;-67
2024/03/03 05:44:40;;;;;;;39.80;22.10;;;;;;;4.07;82.21;96873.56;4962679;28;103782;-66
2024/03/03 05:47:10;;;;;;;35.70;19.95;;;;;;;4.26;81.84;96875.75;4962017;28;102785;-66
2024/03/03 05:49:38;;;;;;;39.15;21.27;;;;;;;4.29;81.42;96871.97;4954905;28;108304;-67
2024/03/03 05:52:07;;;;;;;42.75;23.65;;;;;;;3.96;81.47;96859.88;4940611;28;105444;-67
2024/03/03 05:54:36;;;;;;;39.10;22.48;;;;;;;3.92;82.16;96863.03;4957577;28;102828;-70
2024/03/03 05:57:05;;;;;;;35.97;21.70;;;;;;;4.12;81.94;96872.06;4967089;28;109452;-70
2024/03/03 05:59:33;;;;;;;37.25;21.33;;;;;;;4.08;81.56;96867.34;4956455;28;103099;-67
2024/03/03 06:02:01;;;;;;;35.20;21.15;;;;;;;4.21;81.07;96866.81;4944647;28;103985;-67
2024/03/03 06:04:35;;;;;;;36.75;19.40;;;;;;;4.25;80.43;96865.47;4951664;28;103323;-66
2024/03/03 06:07:04;;;;;;;35.50;18.45;;;;;;;4.34;80.21;96869.66;4956130;28;104821;-67
2024/03/03 06:09:33;;;;;;;34.00;17.98;;;;;;;4.37;79.74;96866.69;4956852;28;103426;-67
2024/03/03 06:12:02;;;;;;;36.58;20.75;;;;;;;4.39;78.92;96875.19;4958818;28;103428;-67
2024/03/03 06:14:30;;;;;;;29.83;17.40;;;;;;;4.42;79.18;96880.09;4961069;28;102753;-66
2024/03/03 06:16:58;;;;;;;32.67;18.60;;;;;;;4.52;78.61;96886.91;4962255;28;102687;-67
2024/03/03 06:19:27;;;;;;;34.95;19.75;;;;;;;4.36;78.11;96890.44;4935507;28;104576;-67
2024/03/03 06:21:56;;;;;;;34.58;18.42;;;;;;;4.31;79.05;96883.13;4953530;28;104137;-66
2024/03/03 06:24:24;;;;;;;36.97;20.80;;;;;;;4.23;79.08;96880.53;4940750;28;103213;-67
2024/03/03 06:26:52;;;;;;;34.58;20.55;;;;;;;4.17;79.89;96870.72;4959915;28;102817;-67
2024/03/03 06:29:20;;;;;;;40.25;22.23;;;;;;;3.97;80.57;96868.56;4956359;28;103467;-66
2024/03/03 06:31:49;;;;;;;41.30;23.42;;;;;;;4.01;80.84;96867.22;4957218;28;105212;-66
2024/03/03 06:34:18;;;;;;;36.20;20.40;;;;;;;4.01;81.46;96869.84;4956625;28;103849;-67
2024/03/03 06:36:46;;;;;;;44.58;23.10;;;;;;;4.02;82.83;96866.22;4938638;28;102865;-67
2024/03/03 06:39:16;;;;;;;38.20;20.67;;;;;;;4.31;82.55;96872.63;4958892;28;111420;-66
2024/03/03 06:41:44;;;;;;;33.63;19.30;;;;;;;4.69;82.27;96880.56;4943935;28;103261;-67
2024/03/03 06:44:16;;;;;;;41.22;22.67;;;;;;;4.80;81.08;96887.19;4930992;28;103104;-66
2024/03/03 06:46:45;;;;;;;40.00;22.50;;;;;;;4.81;78.82;96887.03;4940869;28;102797;-66
2024/03/03 06:49:14;;;;;;;34.63;18.83;;;;;;;5.05;78.64;96895.69;4946304;28;103050;-66
2024/03/03 06:51:42;;;;;;;32.05;17.77;;;;;;;5.27;78.11;96890.56;4944482;28;104517;-67
2024/03/03 06:54:10;;;;;;;43.20;23.23;;;;;;;5.25;75.92;96879.44;4951360;28;104955;-67
2024/03/03 06:56:42;;;;;;;39.08;23.25;;;;;;;5.08;78.54;96878.75;4948376;28;102765;-66
2024/03/03 06:59:11;;;;;;;41.83;23.13;;;;;;;4.80;80.43;96876.72;4950695;28;103231;-69
2024/03/03 07:01:40;;;;;;;43.67;24.30;;;;;;;4.91;81.35;96878.09;4936947;28;106159;-70
2024/03/03 07:04:18;;;;;;;44.65;25.00;;;;;;;4.97;82.40;96861.66;4939605;28;102823;-70
2024/03/03 07:06:47;;;;;;;45.05;26.08;;;;;;;5.06;82.45;96868.44;4950215;28;102864;-66
2024/03/03 07:09:17;;;;;;;48.28;26.10;;;;;;;4.89;83.43;96870.41;4951819;28;103198;-66
2024/03/03 07:11:46;;;;;;;37.88;21.58;;;;;;;5.56;82.47;96868.75;4950719;28;105241;-66
2024/03/03 07:14:15;;;;;;;44.28;23.80;;;;;;;5.88;80.20;96874.66;4952156;28;102957;-66
2024/03/03 07:16:43;;;;;;;39.40;21.50;;;;;;;6.15;78.92;96869.72;4952639;28;102772;-66
2024/03/03 07:19:11;;;;;;;39.65;20.52;;;;;;;6.39;78.51;96871.22;4927133;28;104531;-66
2024/03/03 07:21:40;;;;;;;46.47;25.58;;;;;;;6.04;79.55;96873.66;4926215;28;107277;-66
2024/03/03 07:24:08;;;;;;;44.75;25.27;;;;;;;6.21;78.55;96870.78;4937587;28;102990;-65
2024/03/03 07:26:37;;;;;;;45.72;25.17;;;;;;;5.97;78.50;96873.56;4948370;28;103005;-65
2024/03/03 07:29:07;;;;;;;44.00;23.58;;;;;;;6.29;78.77;96870.72;4933596;28;104594;-65
2024/03/03 07:31:36;;;;;;;44.63;25.55;;;;;;;6.36;77.55;96871.56;4946428;28;108066;-66
2024/03/03 07:34:04;;;;;;;38.85;22.50;;;;;;;6.97;76.89;96872.97;4934129;28;102892;-66
2024/03/03 07:36:32;;;;;;;39.42;22.05;;;;;;;7.38;74.95;96866.97;4937410;28;103068;-66
2024/03/03 07:39:00;;;;;;;35.30;19.48;;;;;;;7.59;74.44;96860.00;4945061;28;105982;-66
2024/03/03 07:41:30;;;;;;;41.55;24.40;;;;;;;7.60;73.59;96869.56;4955340;28;103484;-66
2024/03/03 07:43:58;;;;;;;33.55;19.90;;;;;;;7.50;74.22;96855.91;4919753;28;102982;-66
2024/03/03 07:46:29;;;;;;;38.30;20.38;;;;;;;7.83;73.79;96860.53;4958781;28;103588;-66
2024/03/03 07:48:58;;;;;;;44.38;25.02;;;;;;;7.55;72.75;96859.59;4961471;28;103207;-70
2024/03/03 07:51:26;;;;;;;38.85;21.27;;;;;;;7.63;74.90;96853.34;4956648;28;103439;-70
2024/03/03 07:53:54;;;;;;;33.63;20.98;;;;;;;7.91;73.14;96857.72;4949738;28;103035;-66
2024/03/03 07:56:22;;;;;;;36.22;19.63;;;;;;;8.05;73.61;96848.06;4944653;28;103716;-66
2024/03/03 07:58:51;;;;;;;30.17;18.80;;;;;;;8.40;71.66;96851.41;4935293;28;105314;-66
2024/03/03 08:01:20;;;;;;;37.08;21.05;;;;;;;8.53;70.58;96860.38;4942269;28;106111;-66
2024/03/03 08:03:50;;;;;;;28.63;17.52;;;;;;;8.62;71.05;96865.28;4955514;28;103447;-66
2024/03/03 08:06:18;;;;;;;33.67;21.25;;;;;;;8.59;69.79;96862.22;4965848;28;103074;-66
2024/03/03 08:08:47;;;;;;;29.15;17.60;;;;;;;8.53;69.81;96850.66;4972464;28;103447;-70
2024/03/03 08:11:15;;;;;;;32.38;18.60;;;;;;;8.53;69.63;96847.19;4973087;28;103221;-70
2024/03/03 08:13:44;;;;;;;29.73;18.40;;;;;;;8.05;71.83;96848.84;4972471;28;102749;-65
2024/03/03 08:16:12;;;;;;;29.85;16.75;;;;;;;8.06;71.91;96845.22;4947635;28;102793;-66
2024/03/03 08:18:40;;;;;;;27.70;16.25;;;;;;;8.33;71.55;96855.84;4970061;28;103232;-66
2024/03/03 08:21:13;;;;;;;25.15;15.43;;;;;;;8.72;69.70;96849.03;4966088;28;103766;-65
2024/03/03 08:23:41;;;;;;;31.38;19.35;;;;;;;8.67;68.95;96854.09;4940258;28;102843;-66
2024/03/03 08:26:12;;;;;;;29.98;17.38;;;;;;;8.50;69.98;96845.75;4944955;28;103046;-66
2024/03/03 08:28:40;;;;;;;34.75;19.25;;;;;;;8.68;68.63;96837.25;4971429;28;103340;-66
2024/03/03 08:31:08;;;;;;;27.58;18.27;;;;;;;8.77;69.40;96846.59;4952673;28;104377;-66
2024/03/03 08:33:36;;;;;;;26.05;16.45;;;;;;;9.19;68.27;96837.69;4968420;28;102810;-66
2024/03/03 08:36:05;;;;;;;30.17;19.15;;;;;;;8.48;68.71;96839.88;4963358;28;104885;-66
2024/03/03 08:38:35;;;;;;;28.35;19.02;;;;;;;8.44;69.90;96838.63;4956400;28;105048;-67
2024/03/03 08:41:04;;;;;;;29.13;16.55;;;;;;;8.69;70.03;96838.91;4975421;28;104646;-66
2024/03/03 08:43:32;;;;;;;25.45;16.98;;;;;;;9.26;67.89;96839.31;4958555;28;103034;-66
2024/03/03 08:46:00;;;;;;;27.58;18.25;;;;;;;9.49;66.65;96837.22;4972437;28;102927;-67
2024/03/03 08:48:28;;;;;;;28.50;16.58;;;;;;;9.64;66.99;96835.13;4971111;28;103145;-69
2024/03/03 08:50:56;;;;;;;31.42;18.60;;;;;;;10.10;66.05;96833.34;4951660;28;103612;-69
2024/03/03 08:53:24;;;;;;;29.48;17.70;;;;;;;10.15;65.76;96840.66;4963405;28;103186;-69
2024/03/03 08:55:53;;;;;;;26.55;16.40;;;;;;;10.25;63.50;96836.53;4967823;28;102738;-69
2024/03/03 08:58:21;;;;;;;35.13;19.40;;;;;;;10.00;63.87;96848.88;4969238;28;103558;-69
2024/03/03 09:00:51;;;;;;;25.38;16.98;;;;;;;9.88;65.52;96838.94;4969239;28;103450;-69
2024/03/03 09:03:19;;;;;;;26.05;17.48;;;;;;;9.68;64.66;96841.66;4947943;28;104365;-68
2024/03/03 09:05:47;;;;;;;27.27;17.58;;;;;;;9.77;65.32;96834.28;4939815;28;102824;-69
2024/03/03 09:08:15;;;;;;;27.92;17.55;;;;;;;10.23;64.91;96832.47;4946455;28;105402;-69
2024/03/03 09:10:43;;;;;;;28.58;17.85;;;;;;;10.08;62.81;96830.91;4950217;28;106424;-69
2024/03/03 09:13:13;;;;;;;23.55;15.25;;;;;;;10.41;64.32;96826.50;4966296;28;102819;-72
2024/03/03 09:15:41;;;;;;;27.98;18.30;;;;;;;9.70;63.50;96826.38;4973011;28;102972;-74
2024/03/03 09:18:09;;;;;;;30.05;18.80;;;;;;;8.88;67.35;96831.19;4967250;28;104591;-72
2024/03/03 09:20:38;;;;;;;24.60;15.20;;;;;;;9.65;67.05;96826.19;4969539;28;103480;-74
2024/03/03 09:23:06;;;;;;;33.50;16.95;;;;;;;10.16;64.82;96816.63;4943512;28;102802;-69
2024/03/03 09:25:34;;;;;;;29.70;18.58;;;;;;;9.99;64.06;96821.59;4963033;28;102805;-69
2024/03/03 09:28:02;;;;;;;29.10;16.55;;;;;;;10.18;64.94;96825.19;4947742;28;106422;-69
2024/03/03 09:30:31;;;;;;;25.95;16.63;;;;;;;9.36;66.16;96820.38;4948067;28;105832;-68
2024/03/03 09:32:59;;;;;;;22.38;13.88;;;;;;;9.98;65.77;96819.97;4947528;28;102850;-68
2024/03/03 09:35:27;;;;;;;27.13;16.17;;;;;;;10.19;64.97;96815.38;4947734;28;102856;-69
2024/03/03 09:37:55;;;;;;;20.92;14.05;;;;;;;10.48;64.38;96823.81;4961105;28;103283;-69
2024/03/03 09:40:24;;;;;;;24.80;14.32;;;;;;;10.85;63.24;96818.69;4961765;28;103672;-69
2024/03/03 09:42:53;;;;;;;24.70;14.98;;;;;;;11.24;62.12;96825.47;4964610;28;102756;-69
2024/03/03 09:45:25;;;;;;;27.83;16.83;;;;;;;11.08;60.83;96818.06;4967266;28;102726;-69
2024/03/03 09:47:56;;;;;;;24.30;14.95;;;;;;;10.78;62.87;96830.13;4917757;28;107422;-69
2024/03/03 09:50:26;;;;;;;28.13;17.45;;;;;;;11.14;61.13;96825.13;4961042;28;102743;-68
2024/03/03 09:52:56;;;;;;;24.02;16.00;;;;;;;11.26;61.64;96831.34;4946287;28;102771;-69
2024/03/03 09:55:25;;;;;;;25.60;16.00;;;;;;;11.52;60.67;96820.72;4949039;28;102809;-69
2024/03/03 09:57:53;;;;;;;22.10;14.90;;;;;;;11.80;60.59;96827.34;4953211;28;105326;-69
2024/03/03 10:00:23;;;;;;;23.05;13.75;;;;;;;12.17;59.40;96825.47;4968763;28;103298;-69
2024/03/03 10:02:52;;;;;;;25.85;15.38;;;;;;;12.24;59.50;96822.75;4970984;28;103992;-69
2024/03/03 10:05:22;;;;;;;28.08;17.05;;;;;;;11.75;59.62;96818.19;4970584;28;103066;-68
2024/03/03 10:07:53;;;;;;;25.30;14.85;;;;;;;12.16;59.33;96823.06;4942704;28;102876;-68
2024/03/03 10:10:25;;;;;;;24.75;15.80;;;;;;;12.65;57.70;96823.78;4948751;28;105465;-68
2024/03/03 10:12:56;;;;;;;25.67;16.05;;;;;;;12.49;59.25;96822.59;4966918;28;104092;-68
2024/03/03 10:15:24;;;;;;;25.20;15.75;;;;;;;12.19;58.00;96823.41;4967982;28;103671;-68
2024/03/03 10:17:53;;;;;;;21.92;15.77;;;;;;;12.59;57.06;96816.75;4964655;28;104230;-69
2024/03/03 10:20:25;;;;;;;21.70;14.40;;;;;;;12.84;56.22;96818.38;4955018;28;105379;-73
2024/03/03 10:22:54;;;;;;;22.50;14.52;;;;;;;12.96;56.63;96821.09;4951443;28;102931;-68
2024/03/03 10:25:25;;;;;;;24.02;15.60;;;;;;;12.19;57.22;96817.28;4969061;28;102777;-69
2024/03/03 10:27:55;;;;;;;24.13;14.93;;;;;;;12.05;58.11;96820.13;4939255;28;106238;-69
2024/03/03 10:30:24;;;;;;;24.08;14.07;;;;;;;12.30;57.87;96813.88;4961334;28;103184;-74
2024/03/03 10:33:07;;;;;;;26.52;15.93;;;;;;;11.93;58.40;96820.03;4935761;28;102830;-74
2024/03/03 10:35:37;;;;;;;22.70;14.68;;;;;;;12.46;57.46;96815.09;4952682;28;103058;-74
2024/03/03 10:38:09;;;;;;;21.25;14.23;;;;;;;12.84;56.70;96813.06;4969248;28;103177;-74
2024/03/03 10:40:37;;;;;;;19.55;12.80;;;;;;;13.47;56.07;96813.47;4961756;28;109923;-75
2024/03/03 10:43:06;;;;;;;19.52;13.35;;;;;;;13.43;54.52;96810.47;4972632;28;103001;-70
2024/03/03 10:45:34;;;;;;;22.55;14.00;;;;;;;13.32;55.63;96808.59;4951533;28;103078;-75
2024/03/03 10:48:07;;;;;;;16.40;11.02;;;;;;;13.65;54.37;96801.88;4948442;28;105872;-74
2024/03/03 10:50:35;;;;;;;18.30;11.75;;;;;;;13.69;54.03;96800.38;4948767;28;104988;-74
2024/03/03 10:53:13;;;;;;;17.98;12.52;;;;;;;13.74;54.02;96798.63;4970273;28;103870;-75
2024/03/03 10:55:45;;;;;;;;;;;;;;;13.86;53.97;96795.13;4953810;28;102894;-74
2024/03/03 10:58:15;;;;;;;17.40;11.20;;;;;;;13.93;52.73;96799.25;4967018;28;104288;-75
2024/03/03 11:00:43;;;;;;;15.60;10.05;;;;;;;14.46;52.26;96785.84;4963121;28;103500;-74
2024/03/03 11:03:15;;;;;;;15.60;10.20;;;;;;;14.62;51.66;96792.25;4964029;28;103851;-70
2024/03/03 11:05:43;;;;;;;20.13;12.25;;;;;;;14.18;52.76;96781.38;4972004;28;102619;-74
2024/03/03 11:08:15;;;;;;;22.38;13.13;;;;;;;13.72;53.37;96775.97;4967424;28;102809;-74
2024/03/03 11:10:43;;;;;;;19.45;12.68;;;;;;;13.45;54.50;96783.66;4952945;28;106299;-69
2024/03/03 11:13:13;;;;;;;17.48;11.90;;;;;;;13.57;54.49;96779.94;4970878;28;102731;-74
2024/03/03 11:15:47;;;;;;;17.95;11.52;;;;;;;13.39;54.31;96778.22;4952113;28;102721;-75
2024/03/03 11:18:24;;;;;;;15.88;10.68;;;;;;;13.88;53.39;96785.06;4951331;28;105462;-75
2024/03/03 11:20:54;;;;;;;16.42;10.32;;;;;;;14.11;52.87;96768.22;4973494;28;103204;-75
2024/03/03 11:23:35;;;;;;;18.88;11.50;;;;;;;14.15;52.49;96769.34;4973952;28;102697;-75
2024/03/03 11:26:13;;;;;;;15.65;10.90;;;;;;;13.99;52.97;96764.78;4976122;28;102564;-75